Wayne, Michigan
Current Conditions -  °F | °C
As of 3:53 PM on Tuesday 21 Oct 2014 (Local Time) from KDTW Reporting Station
Overcast Overcast  
Wind Chill: 42°   Ceiling: 2000
Heat Index: 47°   Visibility: 10mi
Dew Point: 39°   Wind: 10mph
Humidity: 74%   Direction: 320°NW
Pressure: 30.08"   Gusts: NA
Location:  42.28°N, 83.38°W
Report Text: KDTW 211953Z 32009KT 10SM BKN020 OVC030 08/04 A3008 RMK AO2 SLP188 T00830039
Loading
Personal Weather Stations






























Interactive Weather Map
Tropical Storm Tracking
New forecast layout! Learn more

10-Day Weather Forecast

Advertisements
Track Severe Weather on mobile